^^
Saratoga-Weather Station Historical Data
Daily Summary for February 25, 2020 Units:  Both    English   Metric
Daily Weekly Monthly Yearly Custom
  High: Low: Average:
Temperature: 82.2 °F /  27.9 °C 52.3 °F /  11.3 °C 66.7 °F /  19.3 °C
Dew Point: 59.2 °F /  15.1 °C 49.8 °F /  9.9 °C 53.2 °F /  11.8 °C
Humidity: 92% 35% 66%
Wind Speed: 16.1mph /  25.9km/h - 1.3mph /  2.1km/h
Wind Gust: 16mph /  25.7km/h - -
Wind- - South
Pressure: 30 in /  1015.6 hPa 29.7 in /  1005.4 hPa -
Precipitation: 0 in /  0.0 mm    
Historical Graphs
 
 
Tabular Data for February 25, 2020
Time Temperature Dew Point Pressure Wind Wind Speed Wind Gust Humidity Rainfall Rate (Hourly) solar
00:00 61 °F /  16.1 °C 52 °F /  11.1 °C 30in /  1015.6hPa Calm     72% 0in /  0.0mm 0 W/m2
00:05 60.6 °F /  15.9 °C 52 °F /  11.1 °C 30in /  1015.6hPa Calm     73% 0in /  0.0mm 0 W/m2
00:10 60.3 °F /  15.7 °C 51.6 °F /  10.9 °C 30in /  1015.6hPa Calm     73% 0in /  0.0mm 0 W/m2
00:15 60.1 °F /  15.6 °C 51.8 °F /  11 °C 30in /  1015.6hPa Calm     74% 0in /  0.0mm 0 W/m2
00:20 59.7 °F /  15.4 °C 51.4 °F /  10.8 °C 30in /  1015.6hPa Calm     74% 0in /  0.0mm 0 W/m2
00:25 59.5 °F /  15.3 °C 51.6 °F /  10.9 °C 30in /  1015.6hPa Calm     75% 0in /  0.0mm 0 W/m2
00:30 59.4 °F /  15.2 °C 51.4 °F /  10.8 °C 30in /  1015.6hPa Calm     75% 0in /  0.0mm 0 W/m2
00:35 59.2 °F /  15.1 °C 51.6 °F /  10.9 °C 30in /  1015.6hPa Calm     76% 0in /  0.0mm 0 W/m2
00:40 58.8 °F /  14.9 °C 51.3 °F /  10.7 °C 30in /  1015.6hPa Calm     76% 0in /  0.0mm 0 W/m2
00:45 58.6 °F /  14.8 °C 51.4 °F /  10.8 °C 30in /  1015.6hPa West 0.9mph /  1.4km/h 1mph /  1.6km/h 77% 0in /  0.0mm 0 W/m2
00:50 58.6 °F /  14.8 °C 51.8 °F /  11 °C 30in /  1015.6hPa Calm     78% 0in /  0.0mm 0 W/m2
00:55 58.5 °F /  14.7 °C 51.6 °F /  10.9 °C 30in /  1015.6hPa Calm   1mph /  1.6km/h 78% 0in /  0.0mm 0 W/m2
01:00 58.3 °F /  14.6 °C 51.4 °F /  10.8 °C 30in /  1015.6hPa Calm     78% 0in /  0.0mm 0 W/m2
01:06 57.9 °F /  14.4 °C 51.1 °F /  10.6 °C 30in /  1015.2hPa Calm     78% 0in /  0.0mm 0 W/m2
01:11 57.7 °F /  14.3 °C 51.3 °F /  10.7 °C 30in /  1015.2hPa Calm     79% 0in /  0.0mm 0 W/m2
01:16 57.7 °F /  14.3 °C 51.6 °F /  10.9 °C 30in /  1015.2hPa Calm     80% 0in /  0.0mm 0 W/m2
01:21 57.6 °F /  14.2 °C 51.4 °F /  10.8 °C 30in /  1015.2hPa Calm     80% 0in /  0.0mm 0 W/m2
01:26 57.6 °F /  14.2 °C 51.4 °F /  10.8 °C 30in /  1015.2hPa Calm     80% 0in /  0.0mm 0 W/m2
01:31 57.4 °F /  14.1 °C 51.3 °F /  10.7 °C 30in /  1015.2hPa Calm     80% 0in /  0.0mm 0 W/m2
01:36 57 °F /  13.9 °C 51.3 °F /  10.7 °C 30in /  1015.2hPa Calm     81% 0in /  0.0mm 0 W/m2
01:41 57 °F /  13.9 °C 51.3 °F /  10.7 °C 30in /  1015.2hPa Calm     81% 0in /  0.0mm 0 W/m2
01:46 57 °F /  13.9 °C 51.3 °F /  10.7 °C 30in /  1015.2hPa Calm     81% 0in /  0.0mm 0 W/m2
01:51 56.8 °F /  13.8 °C 51.4 °F /  10.8 °C 30in /  1015.2hPa Calm     82% 0in /  0.0mm 0 W/m2
01:56 56.8 °F /  13.8 °C 51.1 °F /  10.6 °C 30in /  1015.2hPa Calm     81% 0in /  0.0mm 0 W/m2
02:01 56.7 °F /  13.7 °C 51.3 °F /  10.7 °C 30in /  1014.9hPa Calm     82% 0in /  0.0mm 0 W/m2
02:06 56.5 °F /  13.6 °C 51.1 °F /  10.6 °C 30in /  1014.9hPa Calm   1mph /  1.6km/h 82% 0in /  0.0mm 0 W/m2
02:11 56.5 °F /  13.6 °C 51.1 °F /  10.6 °C 30in /  1014.9hPa Calm     82% 0in /  0.0mm 0 W/m2
02:16 56.1 °F /  13.4 °C 51.1 °F /  10.6 °C 30in /  1014.9hPa Calm     83% 0in /  0.0mm 0 W/m2
02:21 55.9 °F /  13.3 °C 50.9 °F /  10.5 °C 30in /  1014.9hPa Calm     83% 0in /  0.0mm 0 W/m2
02:26 55.9 °F /  13.3 °C 51.3 °F /  10.7 °C 30in /  1014.9hPa Calm     84% 0in /  0.0mm 0 W/m2
02:31 55.8 °F /  13.2 °C 51.1 °F /  10.6 °C 30in /  1014.9hPa Calm     84% 0in /  0.0mm 0 W/m2
02:36 55.8 °F /  13.2 °C 51.1 °F /  10.6 °C 30in /  1014.9hPa Calm     84% 0in /  0.0mm 0 W/m2
02:41 55.6 °F /  13.1 °C 50.9 °F /  10.5 °C 30in /  1014.9hPa Calm   1mph /  1.6km/h 84% 0in /  0.0mm 0 W/m2
02:46 55.6 °F /  13.1 °C 51.1 °F /  10.6 °C 30in /  1014.9hPa Calm   1mph /  1.6km/h 85% 0in /  0.0mm 0 W/m2
02:51 55.2 °F /  12.9 °C 50.7 °F /  10.4 °C 30in /  1014.9hPa Calm     85% 0in /  0.0mm 0 W/m2
02:56 55 °F /  12.8 °C 50.5 °F /  10.3 °C 30in /  1014.6hPa Calm     85% 0in /  0.0mm 0 W/m2
03:01 55 °F /  12.8 °C 50.9 °F /  10.5 °C 30in /  1014.6hPa Calm     86% 0in /  0.0mm 0 W/m2
03:06 55 °F /  12.8 °C 50.9 °F /  10.5 °C 30in /  1014.6hPa Calm     86% 0in /  0.0mm 0 W/m2
03:11 54.9 °F /  12.7 °C 51.1 °F /  10.6 °C 30in /  1014.6hPa Calm     87% 0in /  0.0mm 0 W/m2
03:16 54.9 °F /  12.7 °C 51.1 °F /  10.6 °C 30in /  1014.6hPa Calm     87% 0in /  0.0mm 0 W/m2
03:21 54.7 °F /  12.6 °C 50.9 °F /  10.5 °C 30in /  1014.6hPa Calm     87% 0in /  0.0mm 0 W/m2
03:26 54.7 °F /  12.6 °C 50.9 °F /  10.5 °C 30in /  1014.6hPa Calm     87% 0in /  0.0mm 0 W/m2
03:31 54.5 °F /  12.5 °C 51.1 °F /  10.6 °C 30in /  1014.6hPa Calm     88% 0in /  0.0mm 0 W/m2
03:36 54.5 °F /  12.5 °C 51.1 °F /  10.6 °C 30in /  1014.6hPa Calm     88% 0in /  0.0mm 0 W/m2
03:41 54.7 °F /  12.6 °C 51.3 °F /  10.7 °C 30in /  1014.6hPa Calm   1mph /  1.6km/h 88% 0in /  0.0mm 0 W/m2
03:46 54.7 °F /  12.6 °C 51.3 °F /  10.7 °C 30in /  1014.2hPa Calm     88% 0in /  0.0mm 0 W/m2
03:51 54.5 °F /  12.5 °C 51.1 °F /  10.6 °C 30in /  1014.6hPa Calm   1mph /  1.6km/h 88% 0in /  0.0mm 0 W/m2
03:56 54.3 °F /  12.4 °C 50.9 °F /  10.5 °C 30in /  1014.2hPa Calm     88% 0in /  0.0mm 0 W/m2
04:01 54.3 °F /  12.4 °C 50.9 °F /  10.5 °C 30in /  1014.2hPa Calm     88% 0in /  0.0mm 0 W/m2
04:06 54.3 °F /  12.4 °C 50.9 °F /  10.5 °C 30in /  1014.2hPa Calm     88% 0in /  0.0mm 0 W/m2
04:11 54.3 °F /  12.4 °C 50.9 °F /  10.5 °C 30in /  1014.2hPa Calm     88% 0in /  0.0mm 0 W/m2
04:16 54.3 °F /  12.4 °C 50.9 °F /  10.5 °C 30in /  1014.2hPa Calm     88% 0in /  0.0mm 0 W/m2
04:21 54.1 °F /  12.3 °C 50.7 °F /  10.4 °C 30in /  1014.2hPa Calm     88% 0in /  0.0mm 0 W/m2
04:26 54.1 °F /  12.3 °C 50.7 °F /  10.4 °C 30in /  1014.2hPa Calm     88% 0in /  0.0mm 0 W/m2
04:31 54 °F /  12.2 °C 50.5 °F /  10.3 °C 29.9in /  1013.9hPa Calm     88% 0in /  0.0mm 0 W/m2
04:36 53.8 °F /  12.1 °C 50.4 °F /  10.2 °C 29.9in /  1013.9hPa Calm     88% 0in /  0.0mm 0 W/m2
04:41 53.8 °F /  12.1 °C 50.5 °F /  10.3 °C 29.9in /  1013.9hPa Calm     89% 0in /  0.0mm 0 W/m2
04:46 53.6 °F /  12 °C 50.4 °F /  10.2 °C 29.9in /  1013.9hPa Calm     89% 0in /  0.0mm 0 W/m2
04:51 53.4 °F /  11.9 °C 50.2 °F /  10.1 °C 29.9in /  1013.9hPa Calm     89% 0in /  0.0mm 0 W/m2
04:56 53.2 °F /  11.8 °C 50 °F /  10 °C 29.9in /  1013.9hPa Calm     89% 0in /  0.0mm 0 W/m2
05:01 53.2 °F /  11.8 °C 50.4 °F /  10.2 °C 29.9in /  1013.5hPa Calm     90% 0in /  0.0mm 0 W/m2
05:06 53.2 °F /  11.8 °C 50.4 °F /  10.2 °C 29.9in /  1013.5hPa Calm     90% 0in /  0.0mm 0 W/m2
05:11 53.1 °F /  11.7 °C 50.2 °F /  10.1 °C 29.9in /  1013.5hPa Calm     90% 0in /  0.0mm 0 W/m2
05:16 53.1 °F /  11.7 °C 50.2 °F /  10.1 °C 29.9in /  1013.5hPa Calm     90% 0in /  0.0mm 0 W/m2
05:21 52.9 °F /  11.6 °C 50 °F /  10 °C 29.9in /  1013.5hPa Calm     90% 0in /  0.0mm 0 W/m2
05:26 52.9 °F /  11.6 °C 50.4 °F /  10.2 °C 29.9in /  1013.5hPa Calm     91% 0in /  0.0mm 0 W/m2
05:31 52.9 °F /  11.6 °C 50.4 °F /  10.2 °C 29.9in /  1013.2hPa Calm     91% 0in /  0.0mm 0 W/m2
05:36 52.7 °F /  11.5 °C 50.2 °F /  10.1 °C 29.9in /  1013.2hPa Calm     91% 0in /  0.0mm 0 W/m2
05:41 52.5 °F /  11.4 °C 50 °F /  10 °C 29.9in /  1013.2hPa Calm     91% 0in /  0.0mm 0 W/m2
05:46 52.5 °F /  11.4 °C 50 °F /  10 °C 29.9in /  1013.2hPa Calm     91% 0in /  0.0mm 0 W/m2
05:52 52.3 °F /  11.3 °C 49.8 °F /  9.9 °C 29.9in /  1013.2hPa Calm     91% 0in /  0.0mm 0 W/m2
05:57 52.3 °F /  11.3 °C 49.8 °F /  9.9 °C 29.9in /  1013.2hPa Calm     91% 0in /  0.0mm 0 W/m2
06:02 52.3 °F /  11.3 °C 49.8 °F /  9.9 °C 29.9in /  1013.2hPa Calm     91% 0in /  0.0mm 0 W/m2
06:07 52.3 °F /  11.3 °C 50 °F /  10 °C 29.9in /  1013.2hPa Calm     92% 0in /  0.0mm 0 W/m2
06:12 52.3 °F /  11.3 °C 50 °F /  10 °C 29.9in /  1013.2hPa Calm     92% 0in /  0.0mm 0 W/m2
06:17 52.3 °F /  11.3 °C 50 °F /  10 °C 29.9in /  1013.2hPa Calm     92% 0in /  0.0mm 0 W/m2
06:22 52.3 °F /  11.3 °C 50 °F /  10 °C 29.9in /  1013.2hPa Calm     92% 0in /  0.0mm 0 W/m2
06:27 52.5 °F /  11.4 °C 50.2 °F /  10.1 °C 29.9in /  1013.2hPa Calm     92% 0in /  0.0mm 0 W/m2
06:32 52.5 °F /  11.4 °C 50.2 °F /  10.1 °C 29.9in /  1013.2hPa Calm     92% 0in /  0.0mm 5 W/m2
06:37 52.7 °F /  11.5 °C 50.4 °F /  10.2 °C 29.9in /  1013.2hPa Calm     92% 0in /  0.0mm 9 W/m2
06:42 52.9 °F /  11.6 °C 50.5 °F /  10.3 °C 29.9in /  1013.2hPa Calm     92% 0in /  0.0mm 9 W/m2
06:47 52.9 °F /  11.6 °C 50.5 °F /  10.3 °C 29.9in /  1013.2hPa Calm     92% 0in /  0.0mm 7 W/m2
06:52 53.1 °F /  11.7 °C 50.7 °F /  10.4 °C 29.9in /  1013.2hPa Calm     92% 0in /  0.0mm 9 W/m2
06:57 53.2 °F /  11.8 °C 50.9 °F /  10.5 °C 29.9in /  1013.2hPa Calm   1mph /  1.6km/h 92% 0in /  0.0mm 11 W/m2
07:02 53.4 °F /  11.9 °C 51.1 °F /  10.6 °C 29.9in /  1013.5hPa Calm     92% 0in /  0.0mm 12 W/m2
07:07 53.6 °F /  12 °C 51.3 °F /  10.7 °C 29.9in /  1013.5hPa Calm     92% 0in /  0.0mm 11 W/m2
07:12 53.8 °F /  12.1 °C 51.3 °F /  10.7 °C 29.9in /  1013.5hPa Calm     91% 0in /  0.0mm 12 W/m2
07:17 54 °F /  12.2 °C 51.4 °F /  10.8 °C 29.9in /  1013.5hPa Calm     91% 0in /  0.0mm 14 W/m2
07:22 54 °F /  12.2 °C 51.4 °F /  10.8 °C 29.9in /  1013.5hPa Calm     91% 0in /  0.0mm 18 W/m2
07:27 54.1 °F /  12.3 °C 51.6 °F /  10.9 °C 29.9in /  1013.5hPa Calm     91% 0in /  0.0mm 21 W/m2
07:32 54.1 °F /  12.3 °C 51.3 °F /  10.7 °C 29.9in /  1013.5hPa Calm     90% 0in /  0.0mm 21 W/m2
07:37 54.3 °F /  12.4 °C 51.4 °F /  10.8 °C 29.9in /  1013.5hPa Calm   1mph /  1.6km/h 90% 0in /  0.0mm 23 W/m2
07:42 54.3 °F /  12.4 °C 51.4 °F /  10.8 °C 29.9in /  1013.5hPa Calm     90% 0in /  0.0mm 28 W/m2
07:47 54.7 °F /  12.6 °C 51.8 °F /  11 °C 29.9in /  1013.5hPa Calm     90% 0in /  0.0mm 33 W/m2
07:52 54.9 °F /  12.7 °C 51.6 °F /  10.9 °C 29.9in /  1013.5hPa Calm   1mph /  1.6km/h 89% 0in /  0.0mm 33 W/m2
07:57 55 °F /  12.8 °C 51.8 °F /  11 °C 29.9in /  1013.5hPa West 0.9mph /  1.4km/h 2mph /  3.2km/h 89% 0in /  0.0mm 37 W/m2
08:02 55 °F /  12.8 °C 51.8 °F /  11 °C 29.9in /  1013.5hPa Calm   1mph /  1.6km/h 89% 0in /  0.0mm 39 W/m2
08:07 55.2 °F /  12.9 °C 52 °F /  11.1 °C 29.9in /  1013.5hPa Calm     89% 0in /  0.0mm 40 W/m2
08:12 55.2 °F /  12.9 °C 51.8 °F /  11 °C 29.9in /  1013.5hPa Calm   1mph /  1.6km/h 88% 0in /  0.0mm 42 W/m2
08:17 55.6 °F /  13.1 °C 52.2 °F /  11.2 °C 29.9in /  1013.5hPa Calm     88% 0in /  0.0mm 40 W/m2
08:22 55.6 °F /  13.1 °C 52.2 °F /  11.2 °C 29.9in /  1013.2hPa NE 0.9mph /  1.4km/h 3mph /  4.8km/h 88% 0in /  0.0mm 42 W/m2
08:27 55.8 °F /  13.2 °C 52.3 °F /  11.3 °C 29.9in /  1013.2hPa Calm     88% 0in /  0.0mm 60 W/m2
08:32 55.9 °F /  13.3 °C 52.5 °F /  11.4 °C 29.9in /  1013.2hPa Calm   3mph /  4.8km/h 88% 0in /  0.0mm 70 W/m2
08:37 55.9 °F /  13.3 °C 52.2 °F /  11.2 °C 29.9in /  1013.5hPa Calm   1mph /  1.6km/h 87% 0in /  0.0mm 65 W/m2
08:42 55.9 °F /  13.3 °C 52.2 °F /  11.2 °C 29.9in /  1013.5hPa Calm   1mph /  1.6km/h 87% 0in /  0.0mm 62 W/m2
08:47 56.1 °F /  13.4 °C 52.3 °F /  11.3 °C 29.9in /  1013.5hPa NE 0.9mph /  1.4km/h 1mph /  1.6km/h 87% 0in /  0.0mm 60 W/m2
08:52 56.1 °F /  13.4 °C 52.3 °F /  11.3 °C 29.9in /  1013.5hPa Calm     87% 0in /  0.0mm 58 W/m2
08:57 56.3 °F /  13.5 °C 52.5 °F /  11.4 °C 29.9in /  1013.5hPa Calm   1mph /  1.6km/h 87% 0in /  0.0mm 54 W/m2
09:02 56.3 °F /  13.5 °C 52.5 °F /  11.4 °C 29.9in /  1013.5hPa Calm     87% 0in /  0.0mm 53 W/m2
09:07 56.5 °F /  13.6 °C 52.3 °F /  11.3 °C 29.9in /  1013.5hPa Calm     86% 0in /  0.0mm 54 W/m2
09:12 56.7 °F /  13.7 °C 52.5 °F /  11.4 °C 29.9in /  1013.5hPa Calm   1mph /  1.6km/h 86% 0in /  0.0mm 54 W/m2
09:17 56.7 °F /  13.7 °C 52.5 °F /  11.4 °C 29.9in /  1013.5hPa Calm     86% 0in /  0.0mm 58 W/m2
09:22 56.8 °F /  13.8 °C 52.7 °F /  11.5 °C 29.9in /  1013.5hPa Calm     86% 0in /  0.0mm 60 W/m2
09:27 57 °F /  13.9 °C 52.9 °F /  11.6 °C 29.9in /  1013.5hPa Calm     86% 0in /  0.0mm 60 W/m2
09:32 57 °F /  13.9 °C 52.9 °F /  11.6 °C 29.9in /  1013.5hPa Calm     86% 0in /  0.0mm 67 W/m2
09:37 57.2 °F /  14 °C 53.1 °F /  11.7 °C 29.9in /  1013.5hPa Calm     86% 0in /  0.0mm 74 W/m2
09:42 57.4 °F /  14.1 °C 53.6 °F /  12 °C 29.9in /  1013.5hPa Calm     87% 0in /  0.0mm 83 W/m2
09:47 57.6 °F /  14.2 °C 53.8 °F /  12.1 °C 29.9in /  1013.5hPa Calm     87% 0in /  0.0mm 100 W/m2
09:52 57.7 °F /  14.3 °C 54 °F /  12.2 °C 29.9in /  1013.2hPa Calm     87% 0in /  0.0mm 114 W/m2
09:57 57.9 °F /  14.4 °C 54.1 °F /  12.3 °C 29.9in /  1013.2hPa East 0.9mph /  1.4km/h 2mph /  3.2km/h 87% 0in /  0.0mm 116 W/m2
10:02 57.9 °F /  14.4 °C 54.1 °F /  12.3 °C 29.9in /  1013.2hPa East 0.9mph /  1.4km/h 2mph /  3.2km/h 87% 0in /  0.0mm 155 W/m2
10:07 58.1 °F /  14.5 °C 54.3 °F /  12.4 °C 29.9in /  1013.2hPa Calm   1mph /  1.6km/h 87% 0in /  0.0mm 178 W/m2
10:12 58.5 °F /  14.7 °C 54.7 °F /  12.6 °C 29.9in /  1013.2hPa Calm   2mph /  3.2km/h 87% 0in /  0.0mm 195 W/m2
10:17 58.6 °F /  14.8 °C 54.5 °F /  12.5 °C 29.9in /  1013.2hPa Calm   1mph /  1.6km/h 86% 0in /  0.0mm 172 W/m2
10:22 58.8 °F /  14.9 °C 54.3 °F /  12.4 °C 29.9in /  1013.2hPa Calm   2mph /  3.2km/h 85% 0in /  0.0mm 165 W/m2
10:27 59 °F /  15 °C 54.1 °F /  12.3 °C 29.9in /  1013.2hPa Calm   1mph /  1.6km/h 84% 0in /  0.0mm 190 W/m2
10:32 59.2 °F /  15.1 °C 54.3 °F /  12.4 °C 29.9in /  1013.2hPa East 0.9mph /  1.4km/h 3mph /  4.8km/h 84% 0in /  0.0mm 125 W/m2
10:37 59.2 °F /  15.1 °C 54 °F /  12.2 °C 29.9in /  1012.9hPa ESE 2mph /  3.2km/h 3mph /  4.8km/h 83% 0in /  0.0mm 230 W/m2
10:42 59.2 °F /  15.1 °C 54.3 °F /  12.4 °C 29.9in /  1012.9hPa SE 2mph /  3.2km/h 3mph /  4.8km/h 84% 0in /  0.0mm 206 W/m2
10:47 59.4 °F /  15.2 °C 54.5 °F /  12.5 °C 29.9in /  1012.9hPa ESE 2.9mph /  4.7km/h 3mph /  4.8km/h 84% 0in /  0.0mm 221 W/m2
10:52 59.5 °F /  15.3 °C 54.7 °F /  12.6 °C 29.9in /  1012.5hPa ENE 2mph /  3.2km/h 2mph /  3.2km/h 84% 0in /  0.0mm 236 W/m2
10:57 59.9 °F /  15.5 °C 54.7 °F /  12.6 °C 29.9in /  1012.5hPa NE 2mph /  3.2km/h 3mph /  4.8km/h 83% 0in /  0.0mm 301 W/m2
11:02 60.4 °F /  15.8 °C 55.2 °F /  12.9 °C 29.9in /  1012.5hPa ESE 2mph /  3.2km/h 2mph /  3.2km/h 83% 0in /  0.0mm 318 W/m2
11:07 60.8 °F /  16 °C 55.2 °F /  12.9 °C 29.9in /  1012.5hPa NE 4.9mph /  7.9km/h 5mph /  8km/h 82% 0in /  0.0mm 267 W/m2
11:12 61 °F /  16.1 °C 55 °F /  12.8 °C 29.9in /  1012.5hPa ENE 2mph /  3.2km/h 3mph /  4.8km/h 81% 0in /  0.0mm 248 W/m2
11:17 61.3 °F /  16.3 °C 55.4 °F /  13 °C 29.9in /  1012.2hPa ESE 2mph /  3.2km/h 4mph /  6.4km/h 81% 0in /  0.0mm 271 W/m2
11:22 61.7 °F /  16.5 °C 55.8 °F /  13.2 °C 29.9in /  1012.2hPa Calm   1mph /  1.6km/h 81% 0in /  0.0mm 302 W/m2
11:27 62.2 °F /  16.8 °C 55.9 °F /  13.3 °C 29.9in /  1012.2hPa NE 0.9mph /  1.4km/h 2mph /  3.2km/h 80% 0in /  0.0mm 318 W/m2
11:32 62.8 °F /  17.1 °C 56.1 °F /  13.4 °C 29.9in /  1011.9hPa Calm   1mph /  1.6km/h 79% 0in /  0.0mm 332 W/m2
11:37 63.1 °F /  17.3 °C 55.4 °F /  13 °C 29.9in /  1011.9hPa NE 0.9mph /  1.4km/h 2mph /  3.2km/h 76% 0in /  0.0mm 288 W/m2
11:42 63.7 °F /  17.6 °C 55.6 °F /  13.1 °C 29.9in /  1011.9hPa NNE 0.9mph /  1.4km/h 2mph /  3.2km/h 75% 0in /  0.0mm 295 W/m2
11:47 64.2 °F /  17.9 °C 56.5 °F /  13.6 °C 29.9in /  1011.9hPa Calm     76% 0in /  0.0mm 279 W/m2
11:52 64.9 °F /  18.3 °C 56.5 °F /  13.6 °C 29.9in /  1011.9hPa NE 0.9mph /  1.4km/h 4mph /  6.4km/h 74% 0in /  0.0mm 279 W/m2
11:57 65.3 °F /  18.5 °C 56.5 °F /  13.6 °C 29.9in /  1011.9hPa NNE 2mph /  3.2km/h 3mph /  4.8km/h 73% 0in /  0.0mm 272 W/m2
12:02 65.7 °F /  18.7 °C 56.8 °F /  13.8 °C 29.9in /  1011.9hPa Calm   1mph /  1.6km/h 73% 0in /  0.0mm 244 W/m2
12:07 66 °F /  18.9 °C 57.2 °F /  14 °C 29.9in /  1011.5hPa Calm   2mph /  3.2km/h 73% 0in /  0.0mm 315 W/m2
12:12 66.6 °F /  19.2 °C 57.2 °F /  14 °C 29.9in /  1011.5hPa ENE 2mph /  3.2km/h 6mph /  9.7km/h 72% 0in /  0.0mm 374 W/m2
12:17 66.9 °F /  19.4 °C 56.5 °F /  13.6 °C 29.9in /  1011.5hPa ENE 2mph /  3.2km/h 3mph /  4.8km/h 69% 0in /  0.0mm 387 W/m2
12:22 67.1 °F /  19.5 °C 56.7 °F /  13.7 °C 29.9in /  1011.5hPa North 2mph /  3.2km/h 2mph /  3.2km/h 69% 0in /  0.0mm 258 W/m2
12:27 67.5 °F /  19.7 °C 57 °F /  13.9 °C 29.9in /  1011.5hPa East 2mph /  3.2km/h 3mph /  4.8km/h 69% 0in /  0.0mm 253 W/m2
12:32 67.6 °F /  19.8 °C 56.7 °F /  13.7 °C 29.9in /  1011.5hPa ENE 0.9mph /  1.4km/h 3mph /  4.8km/h 68% 0in /  0.0mm 214 W/m2
12:37 67.8 °F /  19.9 °C 56.8 °F /  13.8 °C 29.9in /  1011.2hPa East 0.9mph /  1.4km/h 2mph /  3.2km/h 68% 0in /  0.0mm 216 W/m2
12:43 68 °F /  20 °C 57 °F /  13.9 °C 29.9in /  1011.2hPa East 2mph /  3.2km/h 3mph /  4.8km/h 68% 0in /  0.0mm 234 W/m2
12:48 68.4 °F /  20.2 °C 56.5 °F /  13.6 °C 29.9in /  1011.2hPa ENE 2.9mph /  4.7km/h 6mph /  9.7km/h 66% 0in /  0.0mm 271 W/m2
12:53 68.5 °F /  20.3 °C 56.7 °F /  13.7 °C 29.9in /  1011.2hPa SE 2mph /  3.2km/h 4mph /  6.4km/h 66% 0in /  0.0mm 251 W/m2
12:58 68.9 °F /  20.5 °C 57.6 °F /  14.2 °C 29.9in /  1011.2hPa West 2mph /  3.2km/h 3mph /  4.8km/h 67% 0in /  0.0mm 257 W/m2
13:03 69.3 °F /  20.7 °C 57 °F /  13.9 °C 29.9in /  1011.2hPa SW 0.9mph /  1.4km/h 4mph /  6.4km/h 65% 0in /  0.0mm 250 W/m2
13:08 69.4 °F /  20.8 °C 56.3 °F /  13.5 °C 29.9in /  1011.2hPa North 0.9mph /  1.4km/h 2mph /  3.2km/h 63% 0in /  0.0mm 239 W/m2
13:13 69.4 °F /  20.8 °C 55.4 °F /  13 °C 29.9in /  1010.8hPa Calm   3mph /  4.8km/h 61% 0in /  0.0mm 264 W/m2
13:18 70 °F /  21.1 °C 55.9 °F /  13.3 °C 29.9in /  1010.8hPa Calm   1mph /  1.6km/h 61% 0in /  0.0mm 241 W/m2
13:23 70.2 °F /  21.2 °C 55.2 °F /  12.9 °C 29.9in /  1010.8hPa NW 2mph /  3.2km/h 7mph /  11.3km/h 59% 0in /  0.0mm 248 W/m2
13:28 70.3 °F /  21.3 °C 55.4 °F /  13 °C 29.8in /  1010.5hPa NE 0.9mph /  1.4km/h 4mph /  6.4km/h 59% 0in /  0.0mm 364 W/m2
13:33 70.9 °F /  21.6 °C 54.9 °F /  12.7 °C 29.8in /  1010.2hPa North 2mph /  3.2km/h 7mph /  11.3km/h 57% 0in /  0.0mm 378 W/m2
13:38 71.2 °F /  21.8 °C 56.1 °F /  13.4 °C 29.8in /  1010.2hPa ENE 0.9mph /  1.4km/h 5mph /  8km/h 59% 0in /  0.0mm 497 W/m2
13:43 72.1 °F /  22.3 °C 56.5 °F /  13.6 °C 29.8in /  1010.2hPa NE 0.9mph /  1.4km/h 3mph /  4.8km/h 58% 0in /  0.0mm 404 W/m2
13:48 72.9 °F /  22.7 °C 56.7 °F /  13.7 °C 29.8in /  1010.2hPa SW 0.9mph /  1.4km/h 3mph /  4.8km/h 57% 0in /  0.0mm 346 W/m2
13:53 73 °F /  22.8 °C 56.8 °F /  13.8 °C 29.8in /  1010.2hPa ENE 2.9mph /  4.7km/h 3mph /  4.8km/h 57% 0in /  0.0mm 285 W/m2
13:58 73 °F /  22.8 °C 57.4 °F /  14.1 °C 29.8in /  1010.2hPa NW 2mph /  3.2km/h 3mph /  4.8km/h 58% 0in /  0.0mm 299 W/m2
14:03 73 °F /  22.8 °C 57.4 °F /  14.1 °C 29.8in /  1010.2hPa East 2mph /  3.2km/h 4mph /  6.4km/h 58% 0in /  0.0mm 295 W/m2
14:08 73 °F /  22.8 °C 56.8 °F /  13.8 °C 29.8in /  1010.2hPa East 0.9mph /  1.4km/h 3mph /  4.8km/h 57% 0in /  0.0mm 304 W/m2
14:13 73 °F /  22.8 °C 56.8 °F /  13.8 °C 29.8in /  1010.2hPa North 0.9mph /  1.4km/h 4mph /  6.4km/h 57% 0in /  0.0mm 443 W/m2
14:18 73.4 °F /  23 °C 57.2 °F /  14 °C 29.8in /  1009.8hPa ENE 0.9mph /  1.4km/h 6mph /  9.7km/h 57% 0in /  0.0mm 403 W/m2
14:23 73.6 °F /  23.1 °C 57.4 °F /  14.1 °C 29.8in /  1009.8hPa NE 2mph /  3.2km/h 8mph /  12.9km/h 57% 0in /  0.0mm 274 W/m2
14:28 73.2 °F /  22.9 °C 57 °F /  13.9 °C 29.8in /  1009.8hPa NNE 0.9mph /  1.4km/h 2mph /  3.2km/h 57% 0in /  0.0mm 271 W/m2
14:33 73.6 °F /  23.1 °C 57.4 °F /  14.1 °C 29.8in /  1009.5hPa East 6.9mph /  11.1km/h 9mph /  14.5km/h 57% 0in /  0.0mm 462 W/m2
14:38 74.3 °F /  23.5 °C 57.6 °F /  14.2 °C 29.8in /  1009.5hPa East 6mph /  9.7km/h 9mph /  14.5km/h 56% 0in /  0.0mm 1030 W/m2
14:44 75 °F /  23.9 °C 57.2 °F /  14 °C 29.8in /  1009.1hPa NW 0.9mph /  1.4km/h 6mph /  9.7km/h 54% 0in /  0.0mm 1069 W/m2
14:49 75.9 °F /  24.4 °C 57.6 °F /  14.2 °C 29.8in /  1009.1hPa NE 4.9mph /  7.9km/h 8mph /  12.9km/h 53% 0in /  0.0mm 522 W/m2
14:54 75.9 °F /  24.4 °C 58.1 °F /  14.5 °C 29.8in /  1009.1hPa NE 4mph /  6.4km/h 6mph /  9.7km/h 54% 0in /  0.0mm 889 W/m2
14:59 76.3 °F /  24.6 °C 57.9 °F /  14.4 °C 29.8in /  1009.1hPa NE 2mph /  3.2km/h 7mph /  11.3km/h 53% 0in /  0.0mm 359 W/m2
15:04 76.5 °F /  24.7 °C 58.1 °F /  14.5 °C 29.8in /  1009.1hPa SE 2.9mph /  4.7km/h 5mph /  8km/h 53% 0in /  0.0mm 325 W/m2
15:09 76.3 °F /  24.6 °C 57.4 °F /  14.1 °C 29.8in /  1009.1hPa East 2.9mph /  4.7km/h 4mph /  6.4km/h 52% 0in /  0.0mm 237 W/m2
15:14 76.5 °F /  24.7 °C 56.5 °F /  13.6 °C 29.8in /  1008.8hPa SE 2mph /  3.2km/h 5mph /  8km/h 50% 0in /  0.0mm 977 W/m2
15:19 77.2 °F /  25.1 °C 57 °F /  13.9 °C 29.8in /  1008.8hPa SW 2.9mph /  4.7km/h 5mph /  8km/h 50% 0in /  0.0mm 846 W/m2
15:24 78.1 °F /  25.6 °C 55.6 °F /  13.1 °C 29.8in /  1008.8hPa NE 4mph /  6.4km/h 6mph /  9.7km/h 46% 0in /  0.0mm 439 W/m2
15:29 78.1 °F /  25.6 °C 55 °F /  12.8 °C 29.8in /  1008.5hPa Calm   5mph /  8km/h 45% 0in /  0.0mm 315 W/m2
15:34 78.3 °F /  25.7 °C 54 °F /  12.2 °C 29.8in /  1008.8hPa NE 2.9mph /  4.7km/h 3mph /  4.8km/h 43% 0in /  0.0mm 334 W/m2
15:39 78.4 °F /  25.8 °C 53.4 °F /  11.9 °C 29.8in /  1008.5hPa WNW 4mph /  6.4km/h 11mph /  17.7km/h 42% 0in /  0.0mm 355 W/m2
15:44 78.4 °F /  25.8 °C 53.4 °F /  11.9 °C 29.8in /  1008.5hPa ENE 2mph /  3.2km/h 2mph /  3.2km/h 42% 0in /  0.0mm 232 W/m2
15:49 78.4 °F /  25.8 °C 53.4 °F /  11.9 °C 29.8in /  1008.5hPa ENE 2mph /  3.2km/h 4mph /  6.4km/h 42% 0in /  0.0mm 206 W/m2
15:54 78.3 °F /  25.7 °C 53.2 °F /  11.8 °C 29.8in /  1008.1hPa NW 2mph /  3.2km/h 2mph /  3.2km/h 42% 0in /  0.0mm 193 W/m2
15:59 77.9 °F /  25.5 °C 52.9 °F /  11.6 °C 29.8in /  1008.1hPa North 0.9mph /  1.4km/h 3mph /  4.8km/h 42% 0in /  0.0mm 316 W/m2
16:04 78.4 °F /  25.8 °C 53.4 °F /  11.9 °C 29.8in /  1007.8hPa SW 0.9mph /  1.4km/h 3mph /  4.8km/h 42% 0in /  0.0mm 809 W/m2
16:09 79.2 °F /  26.2 °C 53.4 °F /  11.9 °C 29.8in /  1007.8hPa WNW 2mph /  3.2km/h 3mph /  4.8km/h 41% 0in /  0.0mm 719 W/m2
16:14 79.5 °F /  26.4 °C 53.8 °F /  12.1 °C 29.8in /  1007.5hPa ENE 2mph /  3.2km/h 7mph /  11.3km/h 41% 0in /  0.0mm 613 W/m2
16:19 80.2 °F /  26.8 °C 53.1 °F /  11.7 °C 29.8in /  1007.5hPa NNE 0.9mph /  1.4km/h 8mph /  12.9km/h 39% 0in /  0.0mm 601 W/m2
16:24 80.2 °F /  26.8 °C 53.1 °F /  11.7 °C 29.8in /  1007.5hPa East 6mph /  9.7km/h 7mph /  11.3km/h 39% 0in /  0.0mm 589 W/m2
16:29 80.4 °F /  26.9 °C 54 °F /  12.2 °C 29.8in /  1007.5hPa NNW 2.9mph /  4.7km/h 6mph /  9.7km/h 40% 0in /  0.0mm 626 W/m2
16:34 80.6 °F /  27 °C 53.4 °F /  11.9 °C 29.7in /  1007.1hPa ENE 0.9mph /  1.4km/h 5mph /  8km/h 39% 0in /  0.0mm 599 W/m2
16:39 80.8 °F /  27.1 °C 53.6 °F /  12 °C 29.7in /  1007.1hPa ENE 2mph /  3.2km/h 4mph /  6.4km/h 39% 0in /  0.0mm 617 W/m2
16:44 81 °F /  27.2 °C 52.9 °F /  11.6 °C 29.7in /  1007.1hPa WSW 0.9mph /  1.4km/h 3mph /  4.8km/h 38% 0in /  0.0mm 598 W/m2
16:49 81.7 °F /  27.6 °C 54.3 °F /  12.4 °C 29.7in /  1007.1hPa North 4.9mph /  7.9km/h 5mph /  8km/h 39% 0in /  0.0mm 599 W/m2
16:54 81.9 °F /  27.7 °C 53.1 °F /  11.7 °C 29.7in /  1007.1hPa Calm   4mph /  6.4km/h 37% 0in /  0.0mm 613 W/m2
16:59 82 °F /  27.8 °C 53.2 °F /  11.8 °C 29.7in /  1006.8hPa NW 8.1mph /  13km/h 9mph /  14.5km/h 37% 0in /  0.0mm 584 W/m2
17:04 82 °F /  27.8 °C 53.2 °F /  11.8 °C 29.7in /  1006.8hPa SE 2mph /  3.2km/h 5mph /  8km/h 37% 0in /  0.0mm 160 W/m2
17:09 82 °F /  27.8 °C 52.5 °F /  11.4 °C 29.7in /  1006.4hPa East 2mph /  3.2km/h 5mph /  8km/h 36% 0in /  0.0mm 649 W/m2
17:14 82.2 °F /  27.9 °C 52.5 °F /  11.4 °C 29.7in /  1006.4hPa NNE 2mph /  3.2km/h 3mph /  4.8km/h 36% 0in /  0.0mm 582 W/m2
17:19 82.2 °F /  27.9 °C 53.4 °F /  11.9 °C 29.7in /  1006.4hPa NE 2.9mph /  4.7km/h 4mph /  6.4km/h 37% 0in /  0.0mm 360 W/m2
17:24 82.2 °F /  27.9 °C 52.5 °F /  11.4 °C 29.7in /  1006.4hPa ENE 0.9mph /  1.4km/h 3mph /  4.8km/h 36% 0in /  0.0mm 179 W/m2
17:29 82 °F /  27.8 °C 53.2 °F /  11.8 °C 29.7in /  1006.4hPa NNE 0.9mph /  1.4km/h 3mph /  4.8km/h 37% 0in /  0.0mm 130 W/m2
17:34 81.7 °F /  27.6 °C 53.6 °F /  12 °C 29.7in /  1006.4hPa East 2mph /  3.2km/h 3mph /  4.8km/h 38% 0in /  0.0mm 163 W/m2
17:39 81.1 °F /  27.3 °C 53.1 °F /  11.7 °C 29.7in /  1006.4hPa ENE 4mph /  6.4km/h 4mph /  6.4km/h 38% 0in /  0.0mm 151 W/m2
17:44 80.8 °F /  27.1 °C 52.9 °F /  11.6 °C 29.7in /  1006.4hPa East 2mph /  3.2km/h 4mph /  6.4km/h 38% 0in /  0.0mm 130 W/m2
17:49 80.8 °F /  27.1 °C 53.6 °F /  12 °C 29.7in /  1006.1hPa ENE 4mph /  6.4km/h 5mph /  8km/h 39% 0in /  0.0mm 121 W/m2
17:54 80.8 °F /  27.1 °C 52.9 °F /  11.6 °C 29.7in /  1006.1hPa ESE 0.9mph /  1.4km/h 5mph /  8km/h 38% 0in /  0.0mm 111 W/m2
17:59 80.8 °F /  27.1 °C 52.9 °F /  11.6 °C 29.7in /  1006.1hPa ENE 0.9mph /  1.4km/h 7mph /  11.3km/h 38% 0in /  0.0mm 125 W/m2
18:04 81 °F /  27.2 °C 52.2 °F /  11.2 °C 29.7in /  1006.1hPa Calm   2mph /  3.2km/h 37% 0in /  0.0mm 158 W/m2
18:09 81 °F /  27.2 °C 51.4 °F /  10.8 °C 29.7in /  1006.1hPa WNW 2.9mph /  4.7km/h 8mph /  12.9km/h 36% 0in /  0.0mm 88 W/m2
18:14 81.1 °F /  27.3 °C 52.3 °F /  11.3 °C 29.7in /  1006.1hPa NW 2.9mph /  4.7km/h 4mph /  6.4km/h 37% 0in /  0.0mm 81 W/m2
18:19 81.1 °F /  27.3 °C 52.3 °F /  11.3 °C 29.7in /  1006.1hPa NW 0.9mph /  1.4km/h 7mph /  11.3km/h 37% 0in /  0.0mm 86 W/m2
18:24 81 °F /  27.2 °C 50.7 °F /  10.4 °C 29.7in /  1006.1hPa Calm   3mph /  4.8km/h 35% 0in /  0.0mm 69 W/m2
18:29 81.1 °F /  27.3 °C 50.9 °F /  10.5 °C 29.7in /  1005.8hPa NE 0.9mph /  1.4km/h 4mph /  6.4km/h 35% 0in /  0.0mm 86 W/m2
18:34 81 °F /  27.2 °C 52.2 °F /  11.2 °C 29.7in /  1005.8hPa NNW 4mph /  6.4km/h 6mph /  9.7km/h 37% 0in /  0.0mm 100 W/m2
18:39 81 °F /  27.2 °C 51.4 °F /  10.8 °C 29.7in /  1005.8hPa South 0.9mph /  1.4km/h 4mph /  6.4km/h 36% 0in /  0.0mm 83 W/m2
18:44 81 °F /  27.2 °C 52.2 °F /  11.2 °C 29.7in /  1005.8hPa Calm   6mph /  9.7km/h 37% 0in /  0.0mm 93 W/m2
18:49 80.8 °F /  27.1 °C 51.3 °F /  10.7 °C 29.7in /  1005.8hPa NW 0.9mph /  1.4km/h 2mph /  3.2km/h 36% 0in /  0.0mm 123 W/m2
18:54 81 °F /  27.2 °C 51.4 °F /  10.8 °C 29.7in /  1005.8hPa NW 0.9mph /  1.4km/h 3mph /  4.8km/h 36% 0in /  0.0mm 98 W/m2
18:59 81 °F /  27.2 °C 52.2 °F /  11.2 °C 29.7in /  1005.8hPa Calm   2mph /  3.2km/h 37% 0in /  0.0mm 77 W/m2
19:04 81.1 °F /  27.3 °C 52.3 °F /  11.3 °C 29.7in /  1005.8hPa SSE 0.9mph /  1.4km/h 2mph /  3.2km/h 37% 0in /  0.0mm 225 W/m2
19:09 81.1 °F /  27.3 °C 53.1 °F /  11.7 °C 29.7in /  1005.8hPa WNW 2mph /  3.2km/h 3mph /  4.8km/h 38% 0in /  0.0mm 83 W/m2
19:14 81.1 °F /  27.3 °C 50.9 °F /  10.5 °C 29.7in /  1005.8hPa NW 0.9mph /  1.4km/h 3mph /  4.8km/h 35% 0in /  0.0mm 67 W/m2
19:19 81.3 °F /  27.4 °C 51.1 °F /  10.6 °C 29.7in /  1005.8hPa WNW 6.9mph /  11.1km/h 12mph /  19.3km/h 35% 0in /  0.0mm 37 W/m2
19:24 81.7 °F /  27.6 °C 51.4 °F /  10.8 °C 29.7in /  1005.8hPa NNE 4.9mph /  7.9km/h 5mph /  8km/h 35% 0in /  0.0mm 63 W/m2
19:29 81.7 °F /  27.6 °C 51.4 °F /  10.8 °C 29.7in /  1005.8hPa WNW 2mph /  3.2km/h 4mph /  6.4km/h 35% 0in /  0.0mm 58 W/m2
19:34 81.9 °F /  27.7 °C 51.4 °F /  10.8 °C 29.7in /  1005.8hPa NW 4.9mph /  7.9km/h 10mph /  16.1km/h 35% 0in /  0.0mm 70 W/m2
19:39 81.9 °F /  27.7 °C 51.4 °F /  10.8 °C 29.7in /  1005.8hPa WSW 4mph /  6.4km/h 6mph /  9.7km/h 35% 0in /  0.0mm 53 W/m2
19:44 81.9 °F /  27.7 °C 51.4 °F /  10.8 °C 29.7in /  1005.4hPa West 2.9mph /  4.7km/h 6mph /  9.7km/h 35% 0in /  0.0mm 39 W/m2
19:49 81.7 °F /  27.6 °C 51.4 °F /  10.8 °C 29.7in /  1005.4hPa WNW 4.9mph /  7.9km/h 5mph /  8km/h 35% 0in /  0.0mm 25 W/m2
19:54 81.3 °F /  27.4 °C 51.1 °F /  10.6 °C 29.7in /  1005.8hPa West 2mph /  3.2km/h 12mph /  19.3km/h 35% 0in /  0.0mm 18 W/m2
19:59 81.1 °F /  27.3 °C 51.6 °F /  10.9 °C 29.7in /  1005.4hPa NE 2mph /  3.2km/h 3mph /  4.8km/h 36% 0in /  0.0mm 21 W/m2
20:04 81 °F /  27.2 °C 51.4 °F /  10.8 °C 29.7in /  1005.4hPa WSW 2.9mph /  4.7km/h 7mph /  11.3km/h 36% 0in /  0.0mm 14 W/m2
20:09 80.8 °F /  27.1 °C 52.2 °F /  11.2 °C 29.7in /  1005.4hPa WSW 4.9mph /  7.9km/h 15mph /  24.1km/h 37% 0in /  0.0mm 12 W/m2
20:14 80.6 °F /  27 °C 52 °F /  11.1 °C 29.7in /  1005.4hPa ESE 6mph /  9.7km/h 6mph /  9.7km/h 37% 0in /  0.0mm 11 W/m2
20:19 80.4 °F /  26.9 °C 51.8 °F /  11 °C 29.7in /  1005.4hPa WSW 2mph /  3.2km/h 15mph /  24.1km/h 37% 0in /  0.0mm 11 W/m2
20:24 80.4 °F /  26.9 °C 52.5 °F /  11.4 °C 29.7in /  1005.4hPa NNW 2mph /  3.2km/h 3mph /  4.8km/h 38% 0in /  0.0mm 5 W/m2
20:29 80.2 °F /  26.8 °C 52.3 °F /  11.3 °C 29.7in /  1005.4hPa NW 2.9mph /  4.7km/h 4mph /  6.4km/h 38% 0in /  0.0mm 5 W/m2
20:34 80.2 °F /  26.8 °C 52.3 °F /  11.3 °C 29.7in /  1005.4hPa WNW 4.9mph /  7.9km/h 6mph /  9.7km/h 38% 0in /  0.0mm 0 W/m2
20:40 80.2 °F /  26.8 °C 52.3 °F /  11.3 °C 29.7in /  1005.4hPa WSW 0.9mph /  1.4km/h 4mph /  6.4km/h 38% 0in /  0.0mm 0 W/m2
20:45 80.1 °F /  26.7 °C 52.9 °F /  11.6 °C 29.7in /  1005.4hPa Calm   2mph /  3.2km/h 39% 0in /  0.0mm 0 W/m2
20:50 80.1 °F /  26.7 °C 52.2 °F /  11.2 °C 29.7in /  1005.4hPa NNE 0.9mph /  1.4km/h 3mph /  4.8km/h 38% 0in /  0.0mm 0 W/m2
20:55 79.9 °F /  26.6 °C 52.7 °F /  11.5 °C 29.7in /  1005.4hPa SW 2mph /  3.2km/h 9mph /  14.5km/h 39% 0in /  0.0mm 0 W/m2
21:00 79.7 °F /  26.5 °C 52.5 °F /  11.4 °C 29.7in /  1005.4hPa NNW 0.9mph /  1.4km/h 8mph /  12.9km/h 39% 0in /  0.0mm 0 W/m2
21:05 79.5 °F /  26.4 °C 52.3 °F /  11.3 °C 29.7in /  1005.4hPa WNW 2.9mph /  4.7km/h 9mph /  14.5km/h 39% 0in /  0.0mm 0 W/m2
21:10 79.3 °F /  26.3 °C 52.9 °F /  11.6 °C 29.7in /  1005.4hPa West 2.9mph /  4.7km/h 3mph /  4.8km/h 40% 0in /  0.0mm 0 W/m2
21:15 79.3 °F /  26.3 °C 52.9 °F /  11.6 °C 29.7in /  1005.4hPa NW 0.9mph /  1.4km/h 4mph /  6.4km/h 40% 0in /  0.0mm 0 W/m2
21:20 79.2 °F /  26.2 °C 53.4 °F /  11.9 °C 29.7in /  1005.8hPa NW 0.9mph /  1.4km/h 3mph /  4.8km/h 41% 0in /  0.0mm 0 W/m2
21:25 79 °F /  26.1 °C 53.2 °F /  11.8 °C 29.7in /  1005.8hPa WNW 4mph /  6.4km/h 5mph /  8km/h 41% 0in /  0.0mm 0 W/m2
21:30 78.6 °F /  25.9 °C 53.6 °F /  12 °C 29.7in /  1005.8hPa WSW 0.9mph /  1.4km/h 3mph /  4.8km/h 42% 0in /  0.0mm 0 W/m2
21:35 78.4 °F /  25.8 °C 54.1 °F /  12.3 °C 29.7in /  1005.8hPa NE 0.9mph /  1.4km/h 5mph /  8km/h 43% 0in /  0.0mm 0 W/m2
21:40 77.9 °F /  25.5 °C 54.3 °F /  12.4 °C 29.7in /  1005.8hPa NNW 2mph /  3.2km/h 3mph /  4.8km/h 44% 0in /  0.0mm 0 W/m2
21:45 77.7 °F /  25.4 °C 54.1 °F /  12.3 °C 29.7in /  1005.8hPa Calm   5mph /  8km/h 44% 0in /  0.0mm 0 W/m2
21:50 77.7 °F /  25.4 °C 54.1 °F /  12.3 °C 29.7in /  1005.8hPa West 2mph /  3.2km/h 3mph /  4.8km/h 44% 0in /  0.0mm 0 W/m2
21:55 77.7 °F /  25.4 °C 54.1 °F /  12.3 °C 29.7in /  1005.8hPa NNE 2mph /  3.2km/h 5mph /  8km/h 44% 0in /  0.0mm 0 W/m2
22:00 77.7 °F /  25.4 °C 54.1 °F /  12.3 °C 29.7in /  1005.8hPa WNW 2mph /  3.2km/h 3mph /  4.8km/h 44% 0in /  0.0mm 0 W/m2
22:05 77.9 °F /  25.5 °C 54.9 °F /  12.7 °C 29.7in /  1005.8hPa NNW 2mph /  3.2km/h 2mph /  3.2km/h 45% 0in /  0.0mm 0 W/m2
22:10 77.7 °F /  25.4 °C 54.7 °F /  12.6 °C 29.7in /  1005.8hPa North 0.9mph /  1.4km/h 3mph /  4.8km/h 45% 0in /  0.0mm 0 W/m2
22:15 77.7 °F /  25.4 °C 54.7 °F /  12.6 °C 29.7in /  1005.8hPa Calm   6mph /  9.7km/h 45% 0in /  0.0mm 0 W/m2
22:20 77.5 °F /  25.3 °C 54.5 °F /  12.5 °C 29.7in /  1005.8hPa NW 0.9mph /  1.4km/h 2mph /  3.2km/h 45% 0in /  0.0mm 0 W/m2
22:25 77.5 °F /  25.3 °C 54.5 °F /  12.5 °C 29.7in /  1005.8hPa NW 2.9mph /  4.7km/h 9mph /  14.5km/h 45% 0in /  0.0mm 0 W/m2
22:30 77.5 °F /  25.3 °C 54.5 °F /  12.5 °C 29.7in /  1005.8hPa NW 2.9mph /  4.7km/h 4mph /  6.4km/h 45% 0in /  0.0mm 0 W/m2
22:35 77.5 °F /  25.3 °C 55 °F /  12.8 °C 29.7in /  1005.8hPa WNW 2mph /  3.2km/h 2mph /  3.2km/h 46% 0in /  0.0mm 0 W/m2
22:40 77.4 °F /  25.2 °C 55 °F /  12.8 °C 29.7in /  1005.8hPa WSW 4mph /  6.4km/h 11mph /  17.7km/h 46% 0in /  0.0mm 0 W/m2
22:46 77.5 °F /  25.3 °C 55 °F /  12.8 °C 29.7in /  1005.8hPa West 4mph /  6.4km/h 7mph /  11.3km/h 46% 0in /  0.0mm 0 W/m2
22:51 77.5 °F /  25.3 °C 55 °F /  12.8 °C 29.7in /  1005.8hPa East 2.9mph /  4.7km/h 10mph /  16.1km/h 46% 0in /  0.0mm 0 W/m2
22:56 77.5 °F /  25.3 °C 55 °F /  12.8 °C 29.7in /  1005.8hPa NW 2.9mph /  4.7km/h 8mph /  12.9km/h 46% 0in /  0.0mm 0 W/m2
23:01 77.5 °F /  25.3 °C 55 °F /  12.8 °C 29.7in /  1005.8hPa NW 2.9mph /  4.7km/h 6mph /  9.7km/h 46% 0in /  0.0mm 0 W/m2
23:06 77.4 °F /  25.2 °C 55.6 °F /  13.1 °C 29.7in /  1005.8hPa NW 16.1mph /  25.9km/h 16mph /  25.7km/h 47% 0in /  0.0mm 0 W/m2
23:11 77.4 °F /  25.2 °C 56.1 °F /  13.4 °C 29.7in /  1005.8hPa NNW 4.9mph /  7.9km/h 7mph /  11.3km/h 48% 0in /  0.0mm 0 W/m2
23:16 77.2 °F /  25.1 °C 56.5 °F /  13.6 °C 29.7in /  1005.8hPa NNW 4mph /  6.4km/h 8mph /  12.9km/h 49% 0in /  0.0mm 0 W/m2
23:21 77 °F /  25 °C 57 °F /  13.9 °C 29.7in /  1005.8hPa WNW 4.9mph /  7.9km/h 10mph /  16.1km/h 50% 0in /  0.0mm 0 W/m2
23:26 76.8 °F /  24.9 °C 57.4 °F /  14.1 °C 29.7in /  1006.1hPa NNW 4.9mph /  7.9km/h 8mph /  12.9km/h 51% 0in /  0.0mm 0 W/m2
23:31 76.5 °F /  24.7 °C 57.6 °F /  14.2 °C 29.7in /  1006.1hPa WNW 2mph /  3.2km/h 7mph /  11.3km/h 52% 0in /  0.0mm 0 W/m2
23:36 76.3 °F /  24.6 °C 57.9 °F /  14.4 °C 29.7in /  1006.1hPa WSW 2.9mph /  4.7km/h 10mph /  16.1km/h 53% 0in /  0.0mm 0 W/m2
23:41 76.1 °F /  24.5 °C 58.3 °F /  14.6 °C 29.7in /  1006.1hPa NW 2.9mph /  4.7km/h 5mph /  8km/h 54% 0in /  0.0mm 0 W/m2
23:46 75.9 °F /  24.4 °C 59.2 °F /  15.1 °C 29.7in /  1006.1hPa West 6.9mph /  11.1km/h 15mph /  24.1km/h 56% 0in /  0.0mm 0 W/m2
23:51 75.7 °F /  24.3 °C 59 °F /  15 °C 29.7in /  1006.4hPa WSW 2mph /  3.2km/h 7mph /  11.3km/h 56% 0in /  0.0mm 0 W/m2
23:56 75.6 °F /  24.2 °C 59.2 °F /  15.1 °C 29.7in /  1006.4hPa WNW 10.1mph /  16.3km/h 15mph /  24.1km/h 57% 0in /  0.0mm 0 W/m2
Juneau County Weather
Compliments of Weather Underground - 4 mb